Airfield :
LOGIN :

Register | Disclaimer

   EN    FR    IT 

 










Legend :    VFR   Marginal VFR   IFR   Intensive IFR   Very Intensive IFR
Visi :
Ceiling :
>= 8 km
>= 3000ft
5 to 8 km
1000 to 3000 ft
1500m to 5 km
500 to 1000 ft
800 to 1500m
200 to 500 ft
< 800m
< 200 ft
Symbols :   Thunderstorms  Fog  Heavy snow  Heavy precipitations  Wind > 20 kt
SIGMETs :     Misc.  Thunderstorms  Icing  Turbulence  Mountain Waves  Volcanic Ashes







- Airport Elevation : 219 ft
- IATA code : DNR
- Download approach charts


LFRD - Dinard

CURRENT METAR :
  • 171330Z AUTO 07004KT 050V110 9999 OVC028 16/10 Q1018 NOSIG

EXPIRED METARs :
  • 171300Z AUTO VRB03KT 9999 BKN027 17/10 Q1018 NOSIG
  • 171230Z AUTO 20004KT 160V230 9999 BKN026 17/10 Q1018 NOSIG
  • 171200Z AUTO 23003KT 170V320 9999 SCT023 17/11 Q1018 NOSIG
  • 171130Z AUTO 18005KT 140V220 9999 FEW019 16/11 Q1019 NOSIG
  • 171100Z AUTO 17007KT 140V200 9999 FEW016 16/11 Q1019 NOSIG

TAF TAF LFRD
Valid from the 17 at 12:00 until the 18 at 12:00 UTC


171100Z 1712/1812 18004KT 9999 SCT020
BECMG 1718/1721 03010KT
ATIS : +33 2 99 16 81 50
No reported NOTAMs for that airfield.



MET'MAP, your aeronautical weather chart ! - Copyright ORBIFLY December 2007 - Disclaimer

ORBIFLY MET'MAP TEAM :

Programming & Development : Alexandra Zaïnal
Concept & Development : Baudouin d'Aumeries
Co-Development & Prog : Marc-Olivier Méhu
Technical & hardware support : Manuel Goepfert

Contact : metmap@orbifly.com




SOURCES & CREDITS :

   NOAA